Time;durP1;ratioP1;P1;durP2;ratioP2;P2;SDS_P1;SDS_P2;PMS_P1;PMS_P2;Temp;Humidity;BMP_temperature;BMP_pressure;BME280_temperature;BME280_humidity;BME280_pressure;Samples;Min_cycle;Max_cycle;Signal;HPM_P1;HPM_P2
2022/04/16 00:00:54;;;;;;;;;;;14.80;53.60;;;;;;4944099;29;19918;-90
2022/04/16 00:03:21;;;;;;;;;;;14.70;53.80;;;;;;4945844;29;19919;-90
2022/04/16 00:05:48;;;;;;;;;;;14.70;54.20;;;;;;4960917;29;20390;-90
2022/04/16 00:08:14;;;;;;;;;;;14.70;54.30;;;;;;4961823;29;19914;-90
2022/04/16 00:10:40;;;;;;;;;;;14.60;54.50;;;;;;4944870;29;19933;-89
2022/04/16 00:13:05;;;;;;;;;;;14.50;54.50;;;;;;4944898;29;19911;-88
2022/04/16 00:15:31;;;;;;;;;;;14.50;54.60;;;;;;4946034;29;19914;-89
2022/04/16 00:17:57;;;;;;;;;;;14.40;54.60;;;;;;4944596;29;20009;-89
2022/04/16 00:20:27;;;;;;;;;;;14.30;55.00;;;;;;4943283;29;19922;-89
2022/04/16 00:22:53;;;;;;;;;;;14.30;55.20;;;;;;4947152;29;19919;-89
2022/04/16 00:25:19;;;;;;;;;;;14.20;55.30;;;;;;4945279;29;20374;-88
2022/04/16 00:27:44;;;;;;;;;;;14.20;55.50;;;;;;4962241;29;19919;-89
2022/04/16 00:30:11;;;;;;;;;;;14.10;55.70;;;;;;4962325;29;19981;-90
2022/04/16 00:32:37;;;;;;;;;;;14.10;56.00;;;;;;4944553;29;20009;-89
2022/04/16 00:35:02;;;;;;;;;;;14.20;56.20;;;;;;4962783;28;20382;-89
2022/04/16 00:37:28;;;;;;;;;;;14.20;55.90;;;;;;4945104;29;20382;-89
2022/04/16 00:39:53;;;;;;;;;;;14.30;55.50;;;;;;4962979;29;19994;-89
2022/04/16 00:42:19;;;;;;;;;;;14.20;55.40;;;;;;4928952;29;19922;-90
2022/04/16 00:44:44;;;;;;;;;;;14.20;55.50;;;;;;4961575;29;19984;-90
2022/04/16 00:47:10;;;;;;;;;;;14.10;55.90;;;;;;4960923;29;20005;-89
2022/04/16 00:49:36;;;;;;;;;;;14.10;56.10;;;;;;4960639;29;20075;-90
2022/04/16 00:52:01;;;;;;;;;;;14.10;56.20;;;;;;4960285;28;20000;-90
2022/04/16 00:54:27;;;;;;;;;;;14.10;56.40;;;;;;4943650;29;19918;-89
2022/04/16 00:56:52;;;;;;;;;;;14.10;56.30;;;;;;4942725;29;19915;-90
2022/04/16 00:59:18;;;;;;;;;;;14.10;56.30;;;;;;4959837;29;19921;-89
2022/04/16 01:01:43;;;;;;;;;;;14.10;56.30;;;;;;4942597;29;19965;-90
2022/04/16 01:04:09;;;;;;;;;;;14.20;56.30;;;;;;4942611;29;19922;-90
2022/04/16 01:06:38;;;;;;;;;;;14.10;56.30;;;;;;4960179;29;19930;-90
2022/04/16 01:09:07;;;;;;;;;;;14.10;56.20;;;;;;4949748;29;19910;-89
2022/04/16 01:11:32;;;;;;;;;;;14.20;56.10;;;;;;4958415;28;19934;-89
2022/04/16 01:14:00;;;;;;;;;;;14.10;56.10;;;;;;4959354;29;20291;-89
2022/04/16 01:16:28;;;;;;;;;;;14.00;56.40;;;;;;4941998;29;19919;-89
2022/04/16 01:18:55;;;;;;;;;;;14.10;56.50;;;;;;4942514;29;19911;-89
2022/04/16 01:21:20;;;;;;;;;;;14.20;56.40;;;;;;4942206;29;19925;-89
2022/04/16 01:23:46;;;;;;;;;;;14.20;56.30;;;;;;4942551;29;19910;-90
2022/04/16 01:26:12;;;;;;;;;;;14.30;56.20;;;;;;4960389;28;19918;-90
2022/04/16 01:28:40;;;;;;;;;;;14.40;55.90;;;;;;4942505;29;19911;-89
2022/04/16 01:31:06;;;;;;;;;;;14.40;55.70;;;;;;4942581;29;19930;-90
2022/04/16 01:33:31;;;;;;;;;;;14.40;55.60;;;;;;4960669;29;19919;-90
2022/04/16 01:35:58;;;;;;;;;;;14.50;55.40;;;;;;4942621;29;20001;-89
2022/04/16 01:38:25;;;;;;;;;;;14.50;55.60;;;;;;4958856;29;19914;-89
2022/04/16 01:40:55;;;;;;;;;;;14.50;55.60;;;;;;4942182;29;19993;-90
2022/04/16 01:43:20;;;;;;;;;;;14.60;55.70;;;;;;4959299;29;19911;-89
2022/04/16 01:45:48;;;;;;;;;;;14.60;55.80;;;;;;4943009;29;19925;-89
2022/04/16 01:48:13;;;;;;;;;;;14.60;55.80;;;;;;4959368;29;19917;-89
2022/04/16 01:50:40;;;;;;;;;;;14.70;55.80;;;;;;4941862;29;19918;-89
2022/04/16 01:53:06;;;;;;;;;;;14.60;55.60;;;;;;4959259;29;20318;-89
2022/04/16 01:55:31;;;;;;;;;;;14.60;55.60;;;;;;4941407;29;19910;-89
2022/04/16 01:57:58;;;;;;;;;;;14.50;55.70;;;;;;4959101;29;20395;-89
2022/04/16 02:00:23;;;;;;;;;;;14.50;55.80;;;;;;4941512;29;19992;-89
2022/04/16 02:02:50;;;;;;;;;;;14.50;55.90;;;;;;4941332;29;19933;-89
2022/04/16 02:05:16;;;;;;;;;;;14.50;55.90;;;;;;4942373;29;19916;-89
2022/04/16 02:07:41;;;;;;;;;;;14.60;55.90;;;;;;4941412;29;20254;-89
2022/04/16 02:10:07;;;;;;;;;;;14.70;55.90;;;;;;4959371;29;19925;-89
2022/04/16 02:12:33;;;;;;;;;;;14.70;55.80;;;;;;4942439;29;19937;-89
2022/04/16 02:14:58;;;;;;;;;;;14.70;55.80;;;;;;4959195;29;20028;-89
2022/04/16 02:17:24;;;;;;;;;;;14.70;55.60;;;;;;4958335;28;19919;-89
2022/04/16 02:19:50;;;;;;;;;;;14.80;55.40;;;;;;4941054;29;19949;-89
2022/04/16 02:22:16;;;;;;;;;;;14.80;55.40;;;;;;4941168;29;19922;-90
2022/04/16 02:24:41;;;;;;;;;;;14.80;55.20;;;;;;4940306;29;19911;-89
2022/04/16 02:27:07;;;;;;;;;;;14.80;54.90;;;;;;4941149;29;19974;-89
2022/04/16 02:29:34;;;;;;;;;;;14.90;54.80;;;;;;4941062;29;19910;-89
2022/04/16 02:32:03;;;;;;;;;;;14.90;54.60;;;;;;4940747;29;19958;-89
2022/04/16 02:34:28;;;;;;;;;;;14.90;54.50;;;;;;4941278;29;19914;-89
2022/04/16 02:36:54;;;;;;;;;;;14.80;54.30;;;;;;4940766;29;19969;-89
2022/04/16 02:39:19;;;;;;;;;;;14.80;54.30;;;;;;4941742;29;19921;-89
2022/04/16 02:41:45;;;;;;;;;;;14.70;54.30;;;;;;4958977;28;19918;-90
2022/04/16 02:47:08;;;;;;;;;;;14.70;54.50;;;;;;4959893;29;19921;-89
2022/04/16 02:49:34;;;;;;;;;;;14.70;54.60;;;;;;4942850;29;19915;-90
2022/04/16 02:51:59;;;;;;;;;;;14.70;54.60;;;;;;4942331;29;19925;-90
2022/04/16 02:54:25;;;;;;;;;;;14.70;54.40;;;;;;4959210;29;19953;-89
2022/04/16 02:56:51;;;;;;;;;;;14.70;54.30;;;;;;4941976;29;20351;-90
2022/04/16 02:59:16;;;;;;;;;;;14.70;54.20;;;;;;4941525;29;20275;-90
2022/04/16 03:01:42;;;;;;;;;;;14.60;54.20;;;;;;4941965;29;20398;-90
2022/04/16 03:04:07;;;;;;;;;;;14.50;54.20;;;;;;4958357;28;20376;-90
2022/04/16 03:06:32;;;;;;;;;;;14.50;54.20;;;;;;4941483;29;20013;-90
2022/04/16 03:08:58;;;;;;;;;;;14.50;54.30;;;;;;4958464;29;19960;-90
2022/04/16 03:11:24;;;;;;;;;;;14.60;54.20;;;;;;4943065;29;19981;-90
2022/04/16 03:13:50;;;;;;;;;;;14.50;54.10;;;;;;4962833;28;19911;-90
2022/04/16 03:19:00;;;;;;;;;;;14.60;53.50;;;;;;4959128;29;19933;-90
2022/04/16 03:21:25;;;;;;;;;;;14.50;53.40;;;;;;4958807;29;20255;-90
2022/04/16 03:23:51;;;;;;;;;;;14.50;52.90;;;;;;4941571;29;19926;-90
2022/04/16 03:26:16;;;;;;;;;;;14.40;52.30;;;;;;4958512;29;19919;-90
2022/04/16 03:28:42;;;;;;;;;;;14.30;52.00;;;;;;4940379;29;20000;-91
2022/04/16 03:31:07;;;;;;;;;;;14.30;52.10;;;;;;4940652;29;19922;-90
2022/04/16 03:33:33;;;;;;;;;;;14.20;52.00;;;;;;4941230;29;19921;-90
2022/04/16 03:35:58;;;;;;;;;;;14.10;52.10;;;;;;4945109;29;19915;-90
2022/04/16 03:38:24;;;;;;;;;;;13.90;52.10;;;;;;4947082;29;20430;-90
2022/04/16 03:40:50;;;;;;;;;;;13.80;52.30;;;;;;4946458;28;19914;-90
2022/04/16 03:43:18;;;;;;;;;;;13.80;52.40;;;;;;4963675;29;19946;-90
2022/04/16 03:45:43;;;;;;;;;;;13.70;52.40;;;;;;4945955;29;19910;-90
2022/04/16 03:48:09;;;;;;;;;;;13.70;52.10;;;;;;4946425;29;19997;-90
2022/04/16 03:50:35;;;;;;;;;;;13.60;52.00;;;;;;4946541;29;19922;-90
2022/04/16 03:53:01;;;;;;;;;;;13.50;51.70;;;;;;4946825;29;19925;-90
2022/04/16 04:00:57;;;;;;;;;;;13.10;51.60;;;;;;4964543;29;19968;-88
2022/04/16 04:03:22;;;;;;;;;;;12.90;51.60;;;;;;4947352;29;19914;-89
2022/04/16 04:05:49;;;;;;;;;;;12.80;51.50;;;;;;4963650;29;19950;-89
2022/04/16 04:08:15;;;;;;;;;;;12.70;51.70;;;;;;4964496;28;19921;-89
2022/04/16 04:10:40;;;;;;;;;;;12.70;51.70;;;;;;4947017;29;19973;-88
2022/04/16 04:13:06;;;;;;;;;;;12.60;51.70;;;;;;4963509;28;19919;-89
2022/04/16 04:15:31;;;;;;;;;;;12.60;51.80;;;;;;4946748;29;19914;-89
2022/04/16 04:17:58;;;;;;;;;;;12.40;52.10;;;;;;4945490;29;20369;-89
2022/04/16 04:20:24;;;;;;;;;;;12.40;52.20;;;;;;4946001;29;19914;-88
2022/04/16 04:22:50;;;;;;;;;;;12.40;52.20;;;;;;4964353;29;20433;-90
2022/04/16 04:25:15;;;;;;;;;;;12.30;52.20;;;;;;4947011;29;19911;-88
2022/04/16 04:27:41;;;;;;;;;;;12.30;52.30;;;;;;4964380;29;19913;-89
2022/04/16 04:30:06;;;;;;;;;;;12.20;52.30;;;;;;4964704;29;19939;-90
2022/04/16 04:32:32;;;;;;;;;;;12.20;52.40;;;;;;4964569;29;19930;-90
2022/04/16 04:34:57;;;;;;;;;;;12.10;52.60;;;;;;4946204;29;19917;-90
2022/04/16 04:37:23;;;;;;;;;;;12.00;52.60;;;;;;4946365;29;19919;-90
2022/04/16 04:39:49;;;;;;;;;;;12.00;52.70;;;;;;4964062;28;19914;-90
2022/04/16 04:42:25;;;;;;;;;;;11.90;52.70;;;;;;4945818;29;19966;-90
2022/04/16 04:44:50;;;;;;;;;;;11.90;52.90;;;;;;4947613;29;20397;-90
2022/04/16 04:47:16;;;;;;;;;;;11.80;53.40;;;;;;4942727;29;19922;-89
2022/04/16 04:49:41;;;;;;;;;;;11.90;53.70;;;;;;4943710;29;19910;-90
2022/04/16 04:52:07;;;;;;;;;;;11.90;53.90;;;;;;4942789;29;19934;-89
2022/04/16 04:54:32;;;;;;;;;;;12.00;53.90;;;;;;4942755;29;20395;-90
2022/04/16 04:56:58;;;;;;;;;;;12.10;53.90;;;;;;4959765;28;19918;-90
2022/04/16 04:59:23;;;;;;;;;;;12.30;54.30;;;;;;4942960;29;19914;-90
2022/04/16 05:01:48;;;;;;;;;;;12.50;54.10;;;;;;4942652;29;20393;-90
2022/04/16 05:04:14;;;;;;;;;;;12.70;53.80;;;;;;4960417;29;19914;-90
2022/04/16 05:06:39;;;;;;;;;;;13.00;53.80;;;;;;4942481;29;20342;-90
2022/04/16 05:09:05;;;;;;;;;;;13.30;53.60;;;;;;4959889;29;19937;-90
2022/04/16 05:11:30;;;;;;;;;;;13.60;53.00;;;;;;4941246;29;19986;-90
2022/04/16 05:13:56;;;;;;;;;;;13.80;52.00;;;;;;4958551;29;19988;-90
2022/04/16 05:16:21;;;;;;;;;;;14.10;50.60;;;;;;4941123;29;19926;-89
2022/04/16 05:18:47;;;;;;;;;;;14.30;49.80;;;;;;4958589;29;19958;-90
2022/04/16 05:21:12;;;;;;;;;;;14.60;49.30;;;;;;4941650;29;19925;-90
2022/04/16 05:23:39;;;;;;;;;;;14.80;48.60;;;;;;4964552;28;19922;-91
2022/04/16 05:26:06;;;;;;;;;;;15.10;47.30;;;;;;4960137;28;19918;-91
2022/04/16 05:28:31;;;;;;;;;;;15.30;46.40;;;;;;4947994;29;19950;-90
2022/04/16 05:30:59;;;;;;;;;;;15.50;45.70;;;;;;4959037;29;19977;-91
2022/04/16 05:36:09;;;;;;;;;;;16.10;45.60;;;;;;4959960;29;20306;-91
2022/04/16 05:38:34;;;;;;;;;;;16.30;44.70;;;;;;4944921;29;19915;-91
2022/04/16 05:41:00;;;;;;;;;;;16.70;44.50;;;;;;4942418;29;19918;-91
2022/04/16 05:43:26;;;;;;;;;;;17.00;43.30;;;;;;4942368;29;19914;-91
2022/04/16 05:45:52;;;;;;;;;;;17.30;42.80;;;;;;4943865;29;20286;-91
2022/04/16 05:48:18;;;;;;;;;;;17.60;41.50;;;;;;4943788;29;19918;-92
2022/04/16 05:50:44;;;;;;;;;;;17.80;40.80;;;;;;4943519;29;20389;-91
2022/04/16 05:53:11;;;;;;;;;;;18.00;40.10;;;;;;4943641;29;20294;-91
2022/04/16 05:55:39;;;;;;;;;;;18.30;40.20;;;;;;4960557;29;20367;-91
2022/04/16 05:58:05;;;;;;;;;;;18.50;38.60;;;;;;4941743;29;19918;-91
2022/04/16 06:00:31;;;;;;;;;;;18.70;38.60;;;;;;4942248;29;19910;-92
2022/04/16 06:02:57;;;;;;;;;;;19.00;38.40;;;;;;4947960;29;19914;-91
2022/04/16 06:05:22;;;;;;;;;;;19.20;37.10;;;;;;4967429;29;19911;-90
2022/04/16 06:07:48;;;;;;;;;;;19.30;35.60;;;;;;4963293;28;19926;-90
2022/04/16 06:10:14;;;;;;;;;;;19.40;35.20;;;;;;4945969;29;19919;-91
2022/04/16 06:12:41;;;;;;;;;;;19.50;35.20;;;;;;4945129;29;20008;-87
2022/04/16 06:15:06;;;;;;;;;;;19.70;34.40;;;;;;4940903;29;19958;-88
2022/04/16 06:17:32;;;;;;;;;;;19.80;33.70;;;;;;4941054;29;19918;-88
2022/04/16 06:19:57;;;;;;;;;;;19.80;33.10;;;;;;4958396;29;19997;-88
2022/04/16 06:22:23;;;;;;;;;;;19.90;33.00;;;;;;4939136;29;19910;-88
2022/04/16 06:24:48;;;;;;;;;;;20.00;32.90;;;;;;4958236;29;20275;-87
2022/04/16 06:27:14;;;;;;;;;;;20.10;32.80;;;;;;4942898;29;20236;-88
2022/04/16 06:29:39;;;;;;;;;;;20.30;31.80;;;;;;4941584;29;19934;-90
2022/04/16 06:32:05;;;;;;;;;;;20.40;31.90;;;;;;4945439;29;19915;-91
2022/04/16 06:34:31;;;;;;;;;;;20.40;31.30;;;;;;4946201;29;20279;-90
2022/04/16 06:36:56;;;;;;;;;;;20.40;31.50;;;;;;4962577;29;19958;-90
2022/04/16 06:39:21;;;;;;;;;;;20.60;31.40;;;;;;4963918;29;19914;-91
2022/04/16 06:41:50;;;;;;;;;;;20.60;30.90;;;;;;4963382;29;19973;-91
2022/04/16 06:44:16;;;;;;;;;;;20.70;30.60;;;;;;4962202;29;19902;-90
2022/04/16 06:46:50;;;;;;;;;;;20.80;30.90;;;;;;4950790;29;20028;-90
2022/04/16 06:49:16;;;;;;;;;;;20.80;30.30;;;;;;4946432;29;20307;-89
2022/04/16 06:51:41;;;;;;;;;;;21.00;30.30;;;;;;4958478;29;19918;-91
2022/04/16 06:54:07;;;;;;;;;;;21.20;29.60;;;;;;4941380;29;19926;-92
2022/04/16 06:56:33;;;;;;;;;;;21.30;28.50;;;;;;4957784;28;19938;-93
2022/04/16 06:58:59;;;;;;;;;;;21.30;28.10;;;;;;4941210;29;19919;-91
2022/04/16 07:01:24;;;;;;;;;;;21.30;28.00;;;;;;4958276;29;19961;-90
2022/04/16 07:03:50;;;;;;;;;;;21.30;27.70;;;;;;4941342;29;19924;-90
2022/04/16 07:06:15;;;;;;;;;;;21.40;27.60;;;;;;4957881;29;19914;-90
2022/04/16 07:08:41;;;;;;;;;;;21.50;27.30;;;;;;4942108;29;19918;-91
2022/04/16 07:11:06;;;;;;;;;;;21.70;27.20;;;;;;4957626;28;20576;-89
2022/04/16 07:13:32;;;;;;;;;;;21.90;26.60;;;;;;4940304;29;19925;-90
2022/04/16 07:15:57;;;;;;;;;;;22.00;26.40;;;;;;4940033;29;19921;-91
2022/04/16 07:18:23;;;;;;;;;;;22.10;25.90;;;;;;4940467;29;19918;-90
2022/04/16 07:20:48;;;;;;;;;;;22.20;25.80;;;;;;4940380;29;19917;-90
2022/04/16 07:23:14;;;;;;;;;;;22.30;25.20;;;;;;4940967;29;19989;-91
2022/04/16 07:25:40;;;;;;;;;;;22.50;25.40;;;;;;4940927;29;19918;-90
2022/04/16 07:28:05;;;;;;;;;;;22.70;24.70;;;;;;4940251;29;19922;-90
2022/04/16 07:30:31;;;;;;;;;;;22.80;24.40;;;;;;4957802;29;19950;-92
2022/04/16 07:32:56;;;;;;;;;;;23.00;24.10;;;;;;4958183;29;19922;-92
2022/04/16 07:35:22;;;;;;;;;;;23.20;23.80;;;;;;4940491;29;20001;-92
2022/04/16 07:37:48;;;;;;;;;;;23.30;23.50;;;;;;4957915;28;19918;-93
2022/04/16 07:40:13;;;;;;;;;;;23.30;22.70;;;;;;4940992;29;19918;-93
2022/04/16 07:42:39;;;;;;;;;;;23.10;22.50;;;;;;4940861;29;19918;-91
2022/04/16 07:45:05;;;;;;;;;;;23.00;22.50;;;;;;4958495;29;19895;-90
2022/04/16 07:47:32;;;;;;;;;;;23.00;22.40;;;;;;4957905;29;19945;-90
2022/04/16 07:49:58;;;;;;;;;;;23.00;22.70;;;;;;4940398;29;19915;-90
2022/04/16 07:52:25;;;;;;;;;;;22.80;22.80;;;;;;4940040;29;19930;-92
2022/04/16 07:54:53;;;;;;;;;;;23.00;22.70;;;;;;4940473;29;19911;-92
2022/04/16 07:57:20;;;;;;;;;;;23.00;22.70;;;;;;4957466;29;20382;-91
2022/04/16 07:59:46;;;;;;;;;;;23.00;22.50;;;;;;4940466;29;19910;-90
2022/04/16 08:02:11;;;;;;;;;;;22.90;22.70;;;;;;4940547;29;20009;-91
2022/04/16 08:04:37;;;;;;;;;;;22.90;23.00;;;;;;4957375;29;20278;-90
2022/04/16 08:07:03;;;;;;;;;;;23.20;23.50;;;;;;4940737;29;19919;-91
2022/04/16 08:09:28;;;;;;;;;;;23.50;22.90;;;;;;4957538;29;20571;-91
2022/04/16 08:11:54;;;;;;;;;;;23.60;22.20;;;;;;4940344;29;20320;-91
2022/04/16 08:14:20;;;;;;;;;;;23.50;21.00;;;;;;4958219;29;19921;-91
2022/04/16 08:16:46;;;;;;;;;;;23.70;20.90;;;;;;4957829;29;19922;-92
2022/04/16 08:19:11;;;;;;;;;;;23.60;20.80;;;;;;4957921;29;19914;-91
2022/04/16 08:21:37;;;;;;;;;;;23.70;20.90;;;;;;4958017;28;20335;-91
2022/04/16 08:24:13;;;;;;;;;;;23.70;20.60;;;;;;4961630;28;19982;-91
2022/04/16 08:26:39;;;;;;;;;;;23.80;20.80;;;;;;4944450;29;19910;-92
2022/04/16 08:29:04;;;;;;;;;;;23.80;20.30;;;;;;4944847;29;20044;-91
2022/04/16 08:31:30;;;;;;;;;;;23.80;20.70;;;;;;4944094;29;19926;-91
2022/04/16 08:33:55;;;;;;;;;;;23.90;20.50;;;;;;4943126;29;19921;-91
2022/04/16 08:36:21;;;;;;;;;;;24.10;20.60;;;;;;4943581;29;19910;-92
2022/04/16 08:38:46;;;;;;;;;;;24.20;20.40;;;;;;4943798;29;19919;-92
2022/04/16 08:41:12;;;;;;;;;;;24.40;20.50;;;;;;4960704;29;20319;-93
2022/04/16 08:43:38;;;;;;;;;;;24.60;20.40;;;;;;4944141;29;20015;-92
2022/04/16 08:46:05;;;;;;;;;;;24.80;20.40;;;;;;4961226;29;19922;-92
2022/04/16 08:48:31;;;;;;;;;;;24.90;19.90;;;;;;4967678;28;19915;-90
2022/04/16 08:51:00;;;;;;;;;;;25.00;19.20;;;;;;4979075;28;19948;-92
2022/04/16 08:53:26;;;;;;;;;;;24.90;19.50;;;;;;4966827;28;19989;-90
2022/04/16 08:55:51;;;;;;;;;;;25.10;19.40;;;;;;4948646;28;20386;-90
2022/04/16 08:58:19;;;;;;;;;;;25.20;19.50;;;;;;4964680;28;19918;-91
2022/04/16 09:00:44;;;;;;;;;;;25.40;19.00;;;;;;4965408;28;19921;-90
2022/04/16 09:03:11;;;;;;;;;;;25.50;18.70;;;;;;4965176;28;20273;-92
2022/04/16 09:05:37;;;;;;;;;;;25.60;18.60;;;;;;4964772;28;19962;-92
2022/04/16 09:08:04;;;;;;;;;;;25.50;18.60;;;;;;4981904;28;20389;-92
2022/04/16 09:10:30;;;;;;;;;;;25.70;18.80;;;;;;4961446;28;19918;-90
2022/04/16 09:12:57;;;;;;;;;;;25.70;17.90;;;;;;4979788;28;19932;-91
2022/04/16 09:15:23;;;;;;;;;;;25.60;18.10;;;;;;4962636;28;19960;-91
2022/04/16 09:17:56;;;;;;;;;;;25.70;18.10;;;;;;4980980;28;20346;-92
2022/04/16 09:20:21;;;;;;;;;;;25.80;17.30;;;;;;4962859;28;19914;-93
2022/04/16 09:22:48;;;;;;;;;;;25.80;17.40;;;;;;4963005;28;20425;-91
2022/04/16 09:25:15;;;;;;;;;;;25.80;17.60;;;;;;4963409;28;19921;-92
2022/04/16 09:27:41;;;;;;;;;;;25.80;17.50;;;;;;4962940;28;19968;-92
2022/04/16 09:30:07;;;;;;;;;;;25.90;17.90;;;;;;4962131;28;19923;-92
2022/04/16 09:32:41;;;;;;;;;;;26.20;17.90;;;;;;4978195;28;19926;-91
2022/04/16 09:35:06;;;;;;;;;;;26.30;17.50;;;;;;4961503;28;20371;-91
2022/04/16 09:37:33;;;;;;;;;;;26.50;17.80;;;;;;4961811;28;19919;-91
2022/04/16 09:40:08;;;;;;;;;;;26.70;17.30;;;;;;4978788;28;19937;-93
2022/04/16 09:42:33;;;;;;;;;;;26.80;17.50;;;;;;4978924;28;19918;-91
2022/04/16 09:45:02;;;;;;;;;;;27.00;17.40;;;;;;4961049;28;20259;-91
2022/04/16 09:47:29;;;;;;;;;;;27.10;17.50;;;;;;4978579;28;19977;-92
2022/04/16 09:49:55;;;;;;;;;;;27.10;17.30;;;;;;4979693;28;19942;-91
2022/04/16 09:52:22;;;;;;;;;;;27.20;17.20;;;;;;4979434;28;20366;-91
2022/04/16 09:54:49;;;;;;;;;;;27.30;17.20;;;;;;4963267;28;20359;-91
2022/04/16 09:57:17;;;;;;;;;;;27.50;17.30;;;;;;4979383;28;19925;-90
2022/04/16 09:59:45;;;;;;;;;;;27.60;16.80;;;;;;4965449;28;19910;-92
2022/04/16 10:02:16;;;;;;;;;;;27.80;16.50;;;;;;4964174;28;19926;-92
2022/04/16 10:04:42;;;;;;;;;;;27.70;16.50;;;;;;4947465;28;19918;-92
2022/04/16 10:07:10;;;;;;;;;;;27.70;16.10;;;;;;4962987;28;19949;-91
2022/04/16 10:14:50;;;;;;;;;;;27.50;16.60;;;;;;4981902;28;20275;-92
2022/04/16 10:17:22;;;;;;;;;;;27.50;16.40;;;;;;4977934;28;19914;-92
2022/04/16 10:19:54;;;;;;;;;;;27.50;16.60;;;;;;4981163;28;19919;-90
2022/04/16 10:22:31;;;;;;;;;;;27.80;16.60;;;;;;4963188;28;19949;-92
2022/04/16 10:24:59;;;;;;;;;;;27.90;16.40;;;;;;4962700;28;19918;-91
2022/04/16 10:27:30;;;;;;;;;;;28.20;16.40;;;;;;4979021;28;19977;-91
2022/04/16 10:30:00;;;;;;;;;;;28.40;16.20;;;;;;4979615;28;19919;-92
2022/04/16 10:32:27;;;;;;;;;;;28.70;15.50;;;;;;4963329;28;19993;-92
2022/04/16 10:35:06;;;;;;;;;;;28.70;15.20;;;;;;4980800;28;19925;-92
2022/04/16 10:37:39;;;;;;;;;;;28.50;15.20;;;;;;4958677;28;19921;-91
2022/04/16 10:40:14;;;;;;;;;;;28.40;15.50;;;;;;4979697;28;19965;-91
2022/04/16 10:42:46;;;;;;;;;;;28.60;15.40;;;;;;4982123;28;19921;-90
2022/04/16 10:45:17;;;;;;;;;;;28.40;14.90;;;;;;4960957;28;20358;-90
2022/04/16 10:47:44;;;;;;;;;;;28.20;15.10;;;;;;4978823;28;19921;-91
2022/04/16 10:50:17;;;;;;;;;;;28.00;15.30;;;;;;4981235;28;19929;-92
2022/04/16 10:53:02;;;;;;;;;;;28.00;15.40;;;;;;4963780;28;20342;-92
2022/04/16 10:55:33;;;;;;;;;;;28.00;15.50;;;;;;4963642;28;19922;-91
2022/04/16 10:58:03;;;;;;;;;;;27.90;15.20;;;;;;4980077;28;20009;-92
2022/04/16 11:00:45;;;;;;;;;;;27.60;15.10;;;;;;4947878;28;20311;-91
2022/04/16 11:03:17;;;;;;;;;;;27.50;15.40;;;;;;4944885;29;19918;-92
2022/04/16 11:05:43;;;;;;;;;;;27.60;15.60;;;;;;4945000;29;19915;-93
2022/04/16 11:08:13;;;;;;;;;;;27.60;15.20;;;;;;4961887;29;19914;-90
2022/04/16 11:10:40;;;;;;;;;;;27.60;15.30;;;;;;4944662;29;19918;-91
2022/04/16 11:13:05;;;;;;;;;;;27.60;15.00;;;;;;4942639;29;19919;-90
2022/04/16 11:15:32;;;;;;;;;;;27.40;14.50;;;;;;4961539;29;19922;-90
2022/04/16 11:17:59;;;;;;;;;;;27.20;14.80;;;;;;4941748;29;19918;-91
2022/04/16 11:20:26;;;;;;;;;;;27.20;15.00;;;;;;4941667;29;20005;-91
2022/04/16 11:22:52;;;;;;;;;;;27.20;15.00;;;;;;4960349;29;19926;-91
2022/04/16 11:25:20;;;;;;;;;;;27.10;14.80;;;;;;4941823;29;19926;-90
2022/04/16 11:36:07;;;;;;;;;;;26.70;14.60;;;;;;4958990;29;19921;-92
2022/04/16 11:38:36;;;;;;;;;;;26.60;14.50;;;;;;4941587;29;19930;-92
2022/04/16 11:41:06;;;;;;;;;;;26.60;14.80;;;;;;4940616;29;19941;-92
2022/04/16 11:43:31;;;;;;;;;;;26.60;15.00;;;;;;4957862;29;19914;-91
2022/04/16 11:46:01;;;;;;;;;;;26.50;15.30;;;;;;4960567;29;19957;-93
2022/04/16 11:48:28;;;;;;;;;;;26.70;15.10;;;;;;4939393;29;19988;-92
2022/04/16 11:50:53;;;;;;;;;;;26.80;14.90;;;;;;4940579;29;19923;-91
2022/04/16 11:53:19;;;;;;;;;;;26.80;14.70;;;;;;4957658;29;19922;-90
2022/04/16 11:55:48;;;;;;;;;;;26.80;14.70;;;;;;4941272;29;19923;-90
2022/04/16 11:58:14;;;;;;;;;;;26.80;14.90;;;;;;4943904;29;19918;-90
2022/04/16 12:01:06;;;;;;;;;;;26.80;14.50;;;;;;4944449;29;19937;-90
2022/04/16 12:03:35;;;;;;;;;;;26.70;14.70;;;;;;4942433;29;20278;-92
2022/04/16 12:06:00;;;;;;;;;;;26.50;14.80;;;;;;4944232;29;19942;-92
2022/04/16 12:08:27;;;;;;;;;;;26.60;14.60;;;;;;4944336;29;19945;-92
2022/04/16 12:10:53;;;;;;;;;;;26.60;14.70;;;;;;4961533;29;20366;-91
2022/04/16 12:13:18;;;;;;;;;;;26.80;14.90;;;;;;4944010;29;19927;-92
2022/04/16 12:15:44;;;;;;;;;;;26.80;14.50;;;;;;4944158;29;19973;-92
2022/04/16 12:18:11;;;;;;;;;;;26.60;14.10;;;;;;4943524;29;19973;-91
2022/04/16 12:20:41;;;;;;;;;;;26.60;14.10;;;;;;4943588;29;20355;-91
2022/04/16 12:23:10;;;;;;;;;;;26.70;13.90;;;;;;4943875;29;19914;-92
2022/04/16 12:25:36;;;;;;;;;;;26.70;13.90;;;;;;4943754;29;19946;-91
2022/04/16 12:28:08;;;;;;;;;;;26.70;14.10;;;;;;4943549;29;19989;-91
2022/04/16 12:30:35;;;;;;;;;;;26.60;13.90;;;;;;4944051;29;19918;-90
2022/04/16 12:33:03;;;;;;;;;;;26.60;13.70;;;;;;4962232;29;19906;-90
2022/04/16 12:35:29;;;;;;;;;;;26.60;13.60;;;;;;4961146;29;19914;-92
2022/04/16 12:37:55;;;;;;;;;;;26.70;13.90;;;;;;4944168;29;19915;-91
2022/04/16 12:40:21;;;;;;;;;;;26.60;14.00;;;;;;4942999;29;20333;-91
2022/04/16 12:42:54;;;;;;;;;;;26.70;14.00;;;;;;4961443;29;19953;-91
2022/04/16 12:45:20;;;;;;;;;;;26.50;13.70;;;;;;4960005;29;20371;-92
2022/04/16 12:47:46;;;;;;;;;;;26.40;13.90;;;;;;4943716;29;19984;-90
2022/04/16 12:50:13;;;;;;;;;;;26.40;14.10;;;;;;4942889;29;21876;-92
2022/04/16 12:52:39;;;;;;;;;;;26.20;14.60;;;;;;4942636;29;19922;-90
2022/04/16 12:55:05;;;;;;;;;;;26.10;14.60;;;;;;4943455;29;20394;-91
2022/04/16 12:57:30;;;;;;;;;;;26.00;14.40;;;;;;4943532;29;19918;-90
2022/04/16 12:59:55;;;;;;;;;;;25.70;14.30;;;;;;4943577;29;19915;-90
2022/04/16 13:02:21;;;;;;;;;;;25.50;14.30;;;;;;4960416;29;19922;-90
2022/04/16 13:04:46;;;;;;;;;;;25.40;14.50;;;;;;4960006;28;19915;-91
2022/04/16 13:07:12;;;;;;;;;;;25.20;14.70;;;;;;4941721;29;19918;-90
2022/04/16 13:09:38;;;;;;;;;;;25.10;15.00;;;;;;4942921;29;20270;-90
2022/04/16 13:12:03;;;;;;;;;;;25.00;15.30;;;;;;4960036;29;20019;-90
2022/04/16 13:14:29;;;;;;;;;;;25.10;15.30;;;;;;4943244;29;19918;-91
2022/04/16 13:16:55;;;;;;;;;;;25.20;15.50;;;;;;4943774;29;19923;-90
2022/04/16 13:19:21;;;;;;;;;;;25.20;15.50;;;;;;4943381;29;20023;-90
2022/04/16 13:21:46;;;;;;;;;;;25.30;15.70;;;;;;4942282;29;20042;-90
2022/04/16 13:24:14;;;;;;;;;;;25.30;15.80;;;;;;4961661;29;20258;-91
2022/04/16 13:26:40;;;;;;;;;;;25.30;15.00;;;;;;4943279;29;19919;-91
2022/04/16 13:29:05;;;;;;;;;;;25.40;15.10;;;;;;4943421;29;20352;-90
2022/04/16 13:31:33;;;;;;;;;;;25.30;15.00;;;;;;4942995;29;19930;-90
2022/04/16 13:33:59;;;;;;;;;;;25.30;14.80;;;;;;4943135;29;19910;-90
2022/04/16 13:36:24;;;;;;;;;;;25.30;15.20;;;;;;4943138;29;20027;-90
2022/04/16 13:38:49;;;;;;;;;;;25.30;15.30;;;;;;4961159;29;19911;-90
2022/04/16 13:43:59;;;;;;;;;;;25.30;16.10;;;;;;4960519;29;19934;-90
2022/04/16 13:46:25;;;;;;;;;;;25.10;15.70;;;;;;4943527;29;19918;-91
2022/04/16 13:48:53;;;;;;;;;;;24.70;15.90;;;;;;4943235;29;19895;-91
2022/04/16 13:51:18;;;;;;;;;;;24.20;16.20;;;;;;4960562;29;20053;-91
2022/04/16 13:53:44;;;;;;;;;;;23.70;16.50;;;;;;4943344;29;20297;-91
2022/04/16 13:56:10;;;;;;;;;;;23.20;16.90;;;;;;4960111;29;19918;-90
2022/04/16 13:58:36;;;;;;;;;;;22.60;17.10;;;;;;4943083;29;19914;-91
2022/04/16 14:01:02;;;;;;;;;;;22.20;17.70;;;;;;4943816;29;19962;-90
2022/04/16 14:03:28;;;;;;;;;;;21.80;18.10;;;;;;4927609;29;19922;-91
2022/04/16 14:05:53;;;;;;;;;;;21.30;18.30;;;;;;4959850;29;19922;-89
2022/04/16 14:08:19;;;;;;;;;;;20.90;19.00;;;;;;4959162;29;19921;-90
2022/04/16 14:10:45;;;;;;;;;;;20.50;19.50;;;;;;4942505;29;19927;-90
2022/04/16 14:13:11;;;;;;;;;;;20.30;19.80;;;;;;4943238;29;19941;-90
2022/04/16 14:15:37;;;;;;;;;;;20.10;20.10;;;;;;4942681;29;20263;-90
2022/04/16 14:18:03;;;;;;;;;;;20.00;20.20;;;;;;4960172;29;19914;-91
2022/04/16 14:20:29;;;;;;;;;;;19.80;20.60;;;;;;4943170;29;20385;-91
2022/04/16 14:22:55;;;;;;;;;;;19.60;20.40;;;;;;4960507;29;19997;-91
2022/04/16 14:25:21;;;;;;;;;;;19.50;20.40;;;;;;4942666;29;19921;-90
2022/04/16 14:27:47;;;;;;;;;;;19.50;20.80;;;;;;4942875;29;19925;-90
2022/04/16 14:30:12;;;;;;;;;;;19.40;20.90;;;;;;4943803;29;20240;-91
2022/04/16 14:32:38;;;;;;;;;;;19.20;21.10;;;;;;4960171;29;19985;-91
2022/04/16 14:35:04;;;;;;;;;;;19.20;21.00;;;;;;4960843;29;19914;-91
2022/04/16 14:37:29;;;;;;;;;;;19.20;21.10;;;;;;4959916;29;19918;-91
2022/04/16 14:39:56;;;;;;;;;;;19.10;21.40;;;;;;4943137;29;20002;-91
2022/04/16 14:42:21;;;;;;;;;;;19.10;21.30;;;;;;4959007;29;19911;-92